createdAt,value
2017-01-19T00:00:30.103Z,0
2017-01-19T00:01:30.109Z,0
2017-01-19T00:02:29.723Z,0
2017-01-19T00:03:30.533Z,0
2017-01-19T00:04:30.136Z,0
2017-01-19T00:05:30.642Z,0
2017-01-19T00:06:30.153Z,0
2017-01-19T00:07:30.560Z,0
2017-01-19T00:08:30.566Z,0
2017-01-19T00:09:29.777Z,0
2017-01-19T00:10:30.187Z,0
2017-01-19T00:11:29.832Z,0
2017-01-19T00:12:29.813Z,0
2017-01-19T00:13:29.817Z,0
2017-01-19T00:14:30.623Z,0
2017-01-19T00:15:30.249Z,0
2017-01-19T00:16:29.842Z,0
2017-01-19T00:17:30.250Z,0
2017-01-19T00:18:30.265Z,0
2017-01-19T00:19:30.268Z,0
2017-01-19T00:20:29.973Z,0
2017-01-19T00:21:29.886Z,0
2017-01-19T00:22:30.692Z,0
2017-01-19T00:23:30.302Z,0
2017-01-19T00:24:31.111Z,0
2017-01-19T00:25:30.719Z,0
2017-01-19T00:26:30.327Z,0
2017-01-19T00:27:29.535Z,0
2017-01-19T00:28:29.952Z,0
2017-01-19T00:29:30.353Z,0
2017-01-19T00:30:29.969Z,0
2017-01-19T00:31:30.379Z,0
2017-01-19T00:32:29.981Z,0
2017-01-19T00:33:31.202Z,0
2017-01-19T00:34:30.441Z,0
2017-01-19T00:35:30.406Z,0
2017-01-19T00:36:30.011Z,0
2017-01-19T00:37:29.626Z,0
2017-01-19T00:38:30.037Z,0
2017-01-19T00:39:29.715Z,0
2017-01-19T00:40:30.052Z,0
2017-01-19T00:41:30.461Z,0
2017-01-19T00:42:30.860Z,0
2017-01-19T00:43:30.079Z,0
2017-01-19T00:44:30.935Z,0
2017-01-19T00:45:30.495Z,0
2017-01-19T00:46:30.500Z,0
2017-01-19T00:47:30.909Z,0
2017-01-19T00:48:30.917Z,0
2017-01-19T00:49:31.006Z,0
2017-01-19T00:50:29.750Z,0
2017-01-19T00:51:30.147Z,0
2017-01-19T00:52:30.558Z,0
2017-01-19T00:53:30.163Z,0
2017-01-19T00:54:30.716Z,0
2017-01-19T00:55:29.784Z,0
2017-01-19T00:56:30.191Z,0
2017-01-19T00:57:30.199Z,0
2017-01-19T00:58:30.610Z,0
2017-01-19T00:59:31.014Z,0
2017-01-19T01:00:30.223Z,0
2017-01-19T01:01:29.837Z,0
2017-01-19T01:02:30.242Z,0
2017-01-19T01:03:30.650Z,0
2017-01-19T01:04:30.259Z,0
2017-01-19T01:05:30.264Z,0
2017-01-19T01:06:31.081Z,0
2017-01-19T01:07:31.079Z,0
2017-01-19T01:08:30.295Z,0
2017-01-19T01:09:30.704Z,0
2017-01-19T01:10:30.314Z,0
2017-01-19T01:11:31.524Z,0
2017-01-19T01:12:30.337Z,0
2017-01-19T01:13:30.751Z,0
2017-01-19T01:14:30.152Z,0
2017-01-19T01:15:30.755Z,0
2017-01-19T01:16:31.215Z,0
2017-01-19T01:17:30.373Z,0
2017-01-19T01:18:30.777Z,0
2017-01-19T01:19:31.197Z,0
2017-01-19T01:20:31.202Z,0
2017-01-19T01:21:30.453Z,0
2017-01-19T01:22:30.420Z,0
2017-01-19T01:23:30.834Z,0
2017-01-19T01:24:31.233Z,0
2017-01-19T01:25:31.237Z,0
2017-01-19T01:26:31.301Z,0
2017-01-19T01:27:30.460Z,0
2017-01-19T01:28:30.467Z,0
2017-01-19T01:29:30.482Z,0
2017-01-19T01:30:31.279Z,0
2017-01-19T01:31:30.896Z,0
2017-01-19T01:32:30.903Z,0
2017-01-19T01:33:30.927Z,0
2017-01-19T01:34:31.317Z,0
2017-01-19T01:35:30.929Z,0
2017-01-19T01:36:31.336Z,0
2017-01-19T01:37:30.947Z,0
2017-01-19T01:38:31.403Z,0
2017-01-19T01:39:30.561Z,0
2017-01-19T01:40:31.772Z,0
2017-01-19T01:41:31.387Z,0
2017-01-19T01:42:30.695Z,0
2017-01-19T01:43:31.003Z,0
2017-01-19T01:44:30.609Z,0
2017-01-19T01:45:30.222Z,0
2017-01-19T01:46:31.434Z,0
2017-01-19T01:47:30.637Z,0
2017-01-19T01:48:31.045Z,0
2017-01-19T01:49:31.059Z,0
2017-01-19T01:50:30.672Z,0
2017-01-19T01:51:31.469Z,0
2017-01-19T01:52:31.081Z,0
2017-01-19T01:53:31.123Z,0
2017-01-19T01:54:31.097Z,0
2017-01-19T01:55:31.105Z,0
2017-01-19T01:56:31.116Z,0
2017-01-19T01:57:31.209Z,0
2017-01-19T01:58:31.537Z,0
2017-01-19T01:59:31.540Z,0
2017-01-19T02:00:30.758Z,0
2017-01-19T02:01:31.564Z,0
2017-01-19T02:02:31.174Z,0
2017-01-19T02:03:31.575Z,0
2017-01-19T02:04:30.797Z,0
2017-01-19T02:05:32.004Z,0
2017-01-19T02:06:30.822Z,0
2017-01-19T02:07:31.615Z,0
2017-01-19T02:08:30.821Z,0
2017-01-19T02:09:30.941Z,0
2017-01-19T02:10:30.841Z,0
2017-01-19T02:11:30.855Z,0
2017-01-19T02:12:31.659Z,0
2017-01-19T02:13:31.371Z,0
2017-01-19T02:14:31.275Z,0
2017-01-19T02:15:31.289Z,0
2017-01-19T02:16:30.900Z,0
2017-01-19T02:17:31.303Z,0
2017-01-19T02:18:30.917Z,0
2017-01-19T02:19:30.926Z,0
2017-01-19T02:20:32.130Z,0
2017-01-19T02:21:31.339Z,0
2017-01-19T02:22:31.349Z,0
2017-01-19T02:23:32.161Z,0
2017-01-19T02:24:30.969Z,0
2017-01-19T02:25:31.769Z,0
2017-01-19T02:26:30.588Z,0
2017-01-19T02:27:30.598Z,0
2017-01-19T02:28:31.804Z,0
2017-01-19T02:29:30.672Z,0
2017-01-19T02:30:30.632Z,0
2017-01-19T02:31:31.434Z,0
2017-01-19T02:32:31.445Z,0
2017-01-19T02:33:31.446Z,0
2017-01-19T02:34:31.859Z,0
2017-01-19T02:35:31.870Z,0
2017-01-19T02:36:31.472Z,0
2017-01-19T02:37:32.276Z,0
2017-01-19T02:38:31.094Z,0
2017-01-19T02:39:31.912Z,0
2017-01-19T02:40:31.908Z,0
2017-01-19T02:41:31.121Z,0
2017-01-19T02:42:31.923Z,0
2017-01-19T02:43:32.334Z,0
2017-01-19T02:44:32.390Z,0
2017-01-19T02:45:31.950Z,0
2017-01-19T02:46:31.566Z,0
2017-01-19T02:47:31.972Z,0
2017-01-19T02:48:31.977Z,0
2017-01-19T02:49:31.192Z,0
2017-01-19T02:50:31.997Z,0
2017-01-19T02:51:30.813Z,0
2017-01-19T02:52:31.636Z,0
2017-01-19T02:53:32.047Z,0
2017-01-19T02:54:32.427Z,0
2017-01-19T02:55:30.843Z,0
2017-01-19T02:56:32.045Z,0
2017-01-19T02:57:31.662Z,0
2017-01-19T02:58:32.067Z,0
2017-01-19T02:59:30.930Z,0
2017-01-19T03:00:31.686Z,0
2017-01-19T03:01:31.296Z,0
2017-01-19T03:02:30.906Z,0
2017-01-19T03:03:31.734Z,0
2017-01-19T03:04:31.321Z,0
2017-01-19T03:05:32.120Z,0
2017-01-19T03:06:31.744Z,0
2017-01-19T03:07:31.348Z,0
2017-01-19T03:08:31.409Z,0
2017-01-19T03:09:31.965Z,0
2017-01-19T03:10:31.770Z,0
2017-01-19T03:11:32.176Z,0
2017-01-19T03:12:31.789Z,0
2017-01-19T03:13:31.400Z,0
2017-01-19T03:14:31.406Z,0
2017-01-19T03:15:31.022Z,0
2017-01-19T03:16:32.628Z,0
2017-01-19T03:17:31.831Z,0
2017-01-19T03:18:32.236Z,0
2017-01-19T03:19:31.842Z,0
2017-01-19T03:20:31.453Z,0
2017-01-19T03:21:31.866Z,0
2017-01-19T03:22:32.271Z,0
2017-01-19T03:23:31.897Z,0
2017-01-19T03:24:32.690Z,0
2017-01-19T03:25:31.895Z,0
2017-01-19T03:26:31.904Z,0
2017-01-19T03:27:32.711Z,0
2017-01-19T03:28:31.522Z,0
2017-01-19T03:29:31.932Z,0
2017-01-19T03:30:31.959Z,0
2017-01-19T03:31:31.554Z,0
2017-01-19T03:32:31.954Z,0
2017-01-19T03:33:31.966Z,0
2017-01-19T03:34:32.369Z,0
2017-01-19T03:35:31.979Z,0
2017-01-19T03:36:32.019Z,0
2017-01-19T03:37:31.999Z,0
2017-01-19T03:38:32.004Z,0
2017-01-19T03:39:31.611Z,0
2017-01-19T03:40:32.016Z,0
2017-01-19T03:41:32.426Z,0
2017-01-19T03:42:32.452Z,0
2017-01-19T03:43:32.062Z,0
2017-01-19T03:44:32.452Z,0
2017-01-19T03:45:32.858Z,0
2017-01-19T03:46:31.674Z,0
2017-01-19T03:47:31.340Z,0
2017-01-19T03:48:31.693Z,0
2017-01-19T03:49:31.700Z,0
2017-01-19T03:50:32.104Z,0
2017-01-19T03:51:31.716Z,0
2017-01-19T03:52:31.719Z,0
2017-01-19T03:53:32.133Z,0
2017-01-19T03:54:32.935Z,0
2017-01-19T03:55:32.144Z,0
2017-01-19T03:56:31.351Z,0
2017-01-19T03:57:32.160Z,0
2017-01-19T03:58:32.572Z,0
2017-01-19T03:59:32.588Z,0
2017-01-19T04:00:32.193Z,0
2017-01-19T04:01:32.199Z,0
2017-01-19T04:02:32.602Z,0
2017-01-19T04:03:32.259Z,0
2017-01-19T04:04:32.219Z,0
2017-01-19T04:05:31.835Z,0
2017-01-19T04:06:31.438Z,0
2017-01-19T04:07:32.259Z,0
2017-01-19T04:08:32.252Z,0
2017-01-19T04:09:32.273Z,0
2017-01-19T04:10:31.869Z,0
2017-01-19T04:11:32.280Z,0
2017-01-19T04:12:32.285Z,0
2017-01-19T04:13:32.293Z,0
2017-01-19T04:14:32.700Z,0
2017-01-19T04:15:32.705Z,0
2017-01-19T04:16:32.767Z,0
2017-01-19T04:17:32.726Z,0
2017-01-19T04:18:33.133Z,0
2017-01-19T04:19:32.749Z,0
2017-01-19T04:20:32.357Z,0
2017-01-19T04:21:31.614Z,0
2017-01-19T04:22:32.363Z,0
2017-01-19T04:23:31.977Z,0
2017-01-19T04:24:31.996Z,0
2017-01-19T04:25:32.791Z,0
2017-01-19T04:26:32.054Z,0
2017-01-19T04:27:32.042Z,0
2017-01-19T04:28:32.838Z,0
2017-01-19T04:29:32.426Z,0
2017-01-19T04:30:32.040Z,0
2017-01-19T04:31:32.496Z,0
2017-01-19T04:32:32.848Z,0
2017-01-19T04:33:32.876Z,0
2017-01-19T04:34:32.065Z,0
2017-01-19T04:35:32.472Z,0
2017-01-19T04:36:32.532Z,0
2017-01-19T04:37:32.097Z,0
2017-01-19T04:38:32.908Z,0
2017-01-19T04:39:32.107Z,0
2017-01-19T04:40:32.514Z,0
2017-01-19T04:41:32.565Z,0
2017-01-19T04:42:32.977Z,0
2017-01-19T04:43:32.536Z,0
2017-01-19T04:44:32.145Z,0
2017-01-19T04:45:33.354Z,0
2017-01-19T04:46:32.565Z,0
2017-01-19T04:47:33.016Z,0
2017-01-19T04:48:31.780Z,0
2017-01-19T04:49:32.989Z,0
2017-01-19T04:50:32.599Z,0
2017-01-19T04:51:32.618Z,0
2017-01-19T04:52:32.608Z,0
2017-01-19T04:53:33.021Z,0
2017-01-19T04:54:33.028Z,0
2017-01-19T04:55:32.243Z,0
2017-01-19T04:56:32.666Z,0
2017-01-19T04:57:32.656Z,0
2017-01-19T04:58:32.664Z,0
2017-01-19T04:59:32.270Z,0
2017-01-19T05:00:33.085Z,0
2017-01-19T05:01:32.680Z,0
2017-01-19T05:02:33.092Z,0
2017-01-19T05:03:32.699Z,0
2017-01-19T05:04:32.735Z,0
2017-01-19T05:05:32.317Z,0
2017-01-19T05:06:33.136Z,0
2017-01-19T05:07:32.333Z,0
2017-01-19T05:08:32.366Z,0
2017-01-19T05:09:32.744Z,0
2017-01-19T05:10:32.353Z,0
2017-01-19T05:11:32.765Z,0
2017-01-19T05:12:32.766Z,0
2017-01-19T05:13:32.380Z,0
2017-01-19T05:14:32.389Z,0
2017-01-19T05:15:33.200Z,0
2017-01-19T05:16:32.013Z,0
2017-01-19T05:17:33.205Z,0
2017-01-19T05:18:32.421Z,0
2017-01-19T05:19:32.422Z,0
2017-01-19T05:20:32.433Z,0
2017-01-19T05:21:33.251Z,0
2017-01-19T05:22:32.448Z,0
2017-01-19T05:23:32.849Z,0
2017-01-19T05:24:32.457Z,0
2017-01-19T05:25:33.264Z,0
2017-01-19T05:26:33.701Z,0
2017-01-19T05:27:32.485Z,0
2017-01-19T05:28:33.690Z,0
2017-01-19T05:29:33.297Z,0
2017-01-19T05:30:33.336Z,0
2017-01-19T05:31:33.316Z,0
2017-01-19T05:32:32.920Z,0
2017-01-19T05:33:32.531Z,0
2017-01-19T05:34:32.940Z,0
2017-01-19T05:35:32.945Z,0
2017-01-19T05:36:32.558Z,0
2017-01-19T05:37:32.962Z,0
2017-01-19T05:38:33.371Z,0
2017-01-19T05:39:32.975Z,0
2017-01-19T05:40:32.984Z,0
2017-01-19T05:41:32.985Z,0
2017-01-19T05:42:32.997Z,0
2017-01-19T05:43:33.408Z,0
2017-01-19T05:44:32.615Z,0
2017-01-19T05:45:32.628Z,0
2017-01-19T05:46:33.035Z,0
2017-01-19T05:47:33.839Z,0
2017-01-19T05:48:33.047Z,0
2017-01-19T05:49:33.460Z,0
2017-01-19T05:50:33.076Z,0
2017-01-19T05:51:32.677Z,0
2017-01-19T05:52:32.684Z,0
2017-01-19T05:53:32.690Z,0
2017-01-19T05:54:33.120Z,0
2017-01-19T05:55:33.107Z,0
2017-01-19T05:56:33.512Z,0
2017-01-19T05:57:33.521Z,0
2017-01-19T05:58:32.730Z,0
2017-01-19T05:59:33.137Z,0
2017-01-19T06:00:33.147Z,0
2017-01-19T06:01:32.806Z,0
2017-01-19T06:02:32.369Z,0
2017-01-19T06:03:32.782Z,0
2017-01-19T06:04:33.584Z,0
2017-01-19T06:05:33.207Z,0
2017-01-19T06:06:32.848Z,0
2017-01-19T06:07:32.806Z,0
2017-01-19T06:08:33.213Z,0
2017-01-19T06:09:34.018Z,0
2017-01-19T06:10:33.628Z,0
2017-01-19T06:11:32.837Z,0
2017-01-19T06:12:32.840Z,0
2017-01-19T06:13:33.653Z,0
2017-01-19T06:14:33.259Z,0
2017-01-19T06:15:32.874Z,0
2017-01-19T06:16:32.483Z,0
2017-01-19T06:17:33.282Z,0
2017-01-19T06:18:33.692Z,0
2017-01-19T06:19:33.303Z,0
2017-01-19T06:20:33.305Z,0
2017-01-19T06:21:32.918Z,0
2017-01-19T06:22:32.927Z,0
2017-01-19T06:23:32.946Z,0
2017-01-19T06:24:33.336Z,0
2017-01-19T06:25:33.745Z,0
2017-01-19T06:26:32.953Z,0
2017-01-19T06:27:33.371Z,0
2017-01-19T06:28:33.778Z,0
2017-01-19T06:29:32.988Z,0
2017-01-19T06:30:33.395Z,0
2017-01-19T06:31:33.394Z,0
2017-01-19T06:32:33.801Z,0
2017-01-19T06:33:33.411Z,0
2017-01-19T06:34:33.020Z,0
2017-01-19T06:35:33.832Z,0
2017-01-19T06:36:33.832Z,0
2017-01-19T06:37:32.644Z,0
2017-01-19T06:38:33.850Z,0
2017-01-19T06:39:33.465Z,0
2017-01-19T06:40:33.862Z,0
2017-01-19T06:41:32.685Z,0
2017-01-19T06:42:33.895Z,0
2017-01-19T06:43:32.688Z,0
2017-01-19T06:44:33.497Z,0
2017-01-19T06:45:33.102Z,0
2017-01-19T06:46:33.114Z,0
2017-01-19T06:47:33.123Z,0
2017-01-19T06:48:33.524Z,0
2017-01-19T06:49:33.137Z,0
2017-01-19T06:50:33.144Z,0
2017-01-19T06:51:32.765Z,0
2017-01-19T06:52:34.362Z,0
2017-01-19T06:53:34.358Z,0
2017-01-19T06:54:33.574Z,0
2017-01-19T06:55:33.582Z,0
2017-01-19T06:56:32.789Z,0
2017-01-19T06:57:33.596Z,0
2017-01-19T06:58:34.002Z,0
2017-01-19T06:59:34.427Z,0
2017-01-19T07:00:34.014Z,0
2017-01-19T07:01:33.625Z,0
2017-01-19T07:02:34.035Z,0
2017-01-19T07:03:33.297Z,0
2017-01-19T07:04:33.647Z,0
2017-01-19T07:05:34.074Z,0
2017-01-19T07:06:33.692Z,0
2017-01-19T07:07:34.084Z,0
2017-01-19T07:08:33.332Z,0
2017-01-19T07:09:33.291Z,0
2017-01-19T07:10:34.099Z,0
2017-01-19T07:11:33.302Z,0
2017-01-19T07:12:33.741Z,0
2017-01-19T07:13:34.118Z,0
2017-01-19T07:14:32.926Z,0
2017-01-19T07:15:33.735Z,0
2017-01-19T07:16:33.791Z,0
2017-01-19T07:17:33.351Z,0
2017-01-19T07:18:34.157Z,0
2017-01-19T07:19:34.160Z,0
2017-01-19T07:20:34.170Z,0
2017-01-19T07:21:32.985Z,0
2017-01-19T07:22:33.387Z,0
2017-01-19T07:23:33.824Z,0
2017-01-19T07:24:33.808Z,0
2017-01-19T07:25:34.609Z,0
2017-01-19T07:26:33.423Z,0
2017-01-19T07:27:33.825Z,0
2017-01-19T07:28:34.230Z,0
2017-01-19T07:29:33.841Z,0
2017-01-19T07:30:33.656Z,0
2017-01-19T07:31:34.258Z,0
2017-01-19T07:32:33.499Z,0
2017-01-19T07:33:33.872Z,0
2017-01-19T07:34:33.883Z,0
2017-01-19T07:35:33.489Z,0
2017-01-19T07:36:33.495Z,0
2017-01-19T07:37:33.953Z,0
2017-01-19T07:38:33.908Z,0
2017-01-19T07:39:34.720Z,0
2017-01-19T07:40:33.955Z,0
2017-01-19T07:41:34.346Z,0
2017-01-19T07:42:34.333Z,0
2017-01-19T07:43:33.948Z,0
2017-01-19T07:44:34.751Z,0
2017-01-19T07:45:33.562Z,0
2017-01-19T07:46:33.965Z,5
2017-01-19T07:47:33.650Z,5
2017-01-19T07:48:33.985Z,5
2017-01-19T07:49:33.590Z,5
2017-01-19T07:50:33.999Z,5
2017-01-19T07:51:33.612Z,5
2017-01-19T07:52:34.015Z,5
2017-01-19T07:53:34.025Z,5
2017-01-19T07:54:34.428Z,5
2017-01-19T07:55:34.432Z,5
2017-01-19T07:56:34.443Z,5
2017-01-19T07:57:34.055Z,5
2017-01-19T07:58:34.463Z,5
2017-01-19T07:59:34.465Z,5
2017-01-19T08:00:33.780Z,5
2017-01-19T08:01:34.080Z,5
2017-01-19T08:02:34.088Z,5
2017-01-19T08:03:34.893Z,5
2017-01-19T08:04:34.511Z,5
2017-01-19T08:05:34.167Z,5
2017-01-19T08:06:34.518Z,5
2017-01-19T08:07:34.127Z,5
2017-01-19T08:08:33.741Z,5
2017-01-19T08:09:34.141Z,5
2017-01-19T08:10:34.198Z,5
2017-01-19T08:11:34.156Z,5
2017-01-19T08:12:34.601Z,5
2017-01-19T08:13:33.376Z,5
2017-01-19T08:14:33.795Z,5
2017-01-19T08:15:33.925Z,5
2017-01-19T08:16:33.801Z,5
2017-01-19T08:17:34.208Z,5
2017-01-19T08:18:34.215Z,5
2017-01-19T08:19:33.815Z,5
2017-01-19T08:20:33.827Z,5
2017-01-19T08:21:34.636Z,5
2017-01-19T08:22:34.246Z,5
2017-01-19T08:23:33.462Z,5
2017-01-19T08:24:34.261Z,5
2017-01-19T08:25:33.867Z,5
2017-01-19T08:26:35.069Z,5
2017-01-19T08:27:34.274Z,5
2017-01-19T08:28:35.102Z,5
2017-01-19T08:29:33.937Z,5
2017-01-19T08:30:34.301Z,5
2017-01-19T08:31:33.911Z,5
2017-01-19T08:32:34.314Z,5
2017-01-19T08:33:34.726Z,5
2017-01-19T08:34:34.335Z,5
2017-01-19T08:35:34.345Z,5
2017-01-19T08:36:34.743Z,10
2017-01-19T08:37:34.359Z,10
2017-01-19T08:38:33.969Z,5
2017-01-19T08:39:34.775Z,10
2017-01-19T08:40:34.382Z,10
2017-01-19T08:41:34.438Z,10
2017-01-19T08:42:33.991Z,10
2017-01-19T08:43:34.002Z,5
2017-01-19T08:44:34.808Z,5
2017-01-19T08:45:34.416Z,5
2017-01-19T08:46:34.075Z,5
2017-01-19T08:47:34.430Z,10
2017-01-19T08:48:34.036Z,10
2017-01-19T08:49:33.652Z,10
2017-01-19T08:50:34.086Z,10
2017-01-19T08:51:34.911Z,10
2017-01-19T08:52:34.468Z,10
2017-01-19T08:53:34.473Z,10
2017-01-19T08:54:34.881Z,10
2017-01-19T08:55:34.926Z,10
2017-01-19T08:56:34.898Z,10
2017-01-19T08:57:34.579Z,10
2017-01-19T08:58:34.916Z,10
2017-01-19T08:59:34.535Z,10
2017-01-19T09:00:34.529Z,10
2017-01-19T09:01:34.536Z,10
2017-01-19T09:02:34.599Z,10
2017-01-19T09:03:34.565Z,10
2017-01-19T09:04:35.363Z,10
2017-01-19T09:05:34.966Z,10
2017-01-19T09:06:34.974Z,15
2017-01-19T09:07:34.636Z,15
2017-01-19T09:08:35.388Z,15
2017-01-19T09:09:34.601Z,15
2017-01-19T09:10:33.814Z,15
2017-01-19T09:11:34.621Z,15
2017-01-19T09:12:35.023Z,15
2017-01-19T09:13:35.030Z,20
2017-01-19T09:14:34.245Z,20
2017-01-19T09:15:35.040Z,20
2017-01-19T09:16:34.649Z,20
2017-01-19T09:17:34.671Z,20
2017-01-19T09:18:34.676Z,20
2017-01-19T09:19:34.284Z,20
2017-01-19T09:20:34.688Z,20
2017-01-19T09:21:34.692Z,20
2017-01-19T09:22:35.133Z,20
2017-01-19T09:23:34.359Z,20
2017-01-19T09:24:34.724Z,20
2017-01-19T09:25:34.731Z,15
2017-01-19T09:26:34.730Z,15
2017-01-19T09:27:34.739Z,15
2017-01-19T09:28:34.756Z,20
2017-01-19T09:29:34.962Z,20
2017-01-19T09:30:34.782Z,20
2017-01-19T09:31:35.174Z,20
2017-01-19T09:32:34.391Z,20
2017-01-19T09:33:34.793Z,20
2017-01-19T09:34:34.806Z,20
2017-01-19T09:35:34.405Z,20
2017-01-19T09:36:34.821Z,20
2017-01-19T09:37:34.059Z,20
2017-01-19T09:38:35.259Z,20
2017-01-19T09:39:34.839Z,20
2017-01-19T09:40:34.848Z,20
2017-01-19T09:41:35.269Z,20
2017-01-19T09:42:34.872Z,20
2017-01-19T09:43:35.271Z,20
2017-01-19T09:44:35.278Z,20
2017-01-19T09:45:34.490Z,20
2017-01-19T09:46:34.103Z,20
2017-01-19T09:47:34.505Z,20
2017-01-19T09:48:34.963Z,20
2017-01-19T09:49:35.318Z,20
2017-01-19T09:50:35.724Z,20
2017-01-19T09:51:34.940Z,20
2017-01-19T09:52:34.558Z,20
2017-01-19T09:53:34.960Z,20
2017-01-19T09:54:34.964Z,20
2017-01-19T09:55:35.375Z,20
2017-01-19T09:56:34.577Z,20
2017-01-19T09:57:35.383Z,20
2017-01-19T09:58:35.394Z,20
2017-01-19T09:59:35.002Z,20
2017-01-19T10:00:34.614Z,25
2017-01-19T10:01:34.617Z,25
2017-01-19T10:02:34.656Z,25
2017-01-19T10:03:35.442Z,30
2017-01-19T10:04:35.454Z,30
2017-01-19T10:05:35.059Z,30
2017-01-19T10:06:35.481Z,30
2017-01-19T10:07:35.097Z,30
2017-01-19T10:08:35.070Z,30
2017-01-19T10:09:35.128Z,30
2017-01-19T10:10:34.724Z,30
2017-01-19T10:11:35.104Z,30
2017-01-19T10:12:35.292Z,30
2017-01-19T10:13:35.132Z,30
2017-01-19T10:14:35.523Z,25
2017-01-19T10:15:35.140Z,30
2017-01-19T10:16:34.745Z,30
2017-01-19T10:17:34.754Z,30
2017-01-19T10:18:35.166Z,30
2017-01-19T10:19:35.985Z,30
2017-01-19T10:20:34.780Z,30
2017-01-19T10:21:35.584Z,25
2017-01-19T10:22:34.844Z,25
2017-01-19T10:23:35.210Z,25
2017-01-19T10:24:36.010Z,30
2017-01-19T10:25:34.821Z,30
2017-01-19T10:26:35.631Z,35
2017-01-19T10:27:35.694Z,40
2017-01-19T10:28:35.641Z,40
2017-01-19T10:29:35.657Z,40
2017-01-19T10:30:35.263Z,40
2017-01-19T10:31:34.474Z,40
2017-01-19T10:32:35.727Z,40
2017-01-19T10:33:35.283Z,40
2017-01-19T10:34:34.894Z,40
2017-01-19T10:35:35.307Z,40
2017-01-19T10:36:35.313Z,35
2017-01-19T10:37:35.392Z,35
2017-01-19T10:38:35.749Z,40
2017-01-19T10:39:35.739Z,45
2017-01-19T10:40:35.747Z,50
2017-01-19T10:41:35.356Z,55
2017-01-19T10:42:36.219Z,55
2017-01-19T10:43:34.970Z,55
2017-01-19T10:44:35.381Z,45
2017-01-19T10:45:35.421Z,40
2017-01-19T10:46:35.396Z,40
2017-01-19T10:47:35.803Z,35
2017-01-19T10:48:35.013Z,40
2017-01-19T10:49:34.631Z,40
2017-01-19T10:50:35.029Z,40
2017-01-19T10:51:35.051Z,40
2017-01-19T10:52:35.065Z,40
2017-01-19T10:53:35.562Z,45
2017-01-19T10:54:35.515Z,40
2017-01-19T10:55:35.524Z,40
2017-01-19T10:56:35.186Z,45
2017-01-19T10:57:35.994Z,45
2017-01-19T10:58:36.339Z,45
2017-01-19T10:59:35.533Z,45
2017-01-19T11:00:34.787Z,50
2017-01-19T11:01:35.952Z,55
2017-01-19T11:02:35.968Z,55
2017-01-19T11:03:35.560Z,65
2017-01-19T11:04:36.372Z,55
2017-01-19T11:05:36.026Z,50
2017-01-19T11:06:36.388Z,50
2017-01-19T11:07:34.829Z,55
2017-01-19T11:08:36.034Z,45
2017-01-19T11:09:36.148Z,45
2017-01-19T11:10:35.684Z,40
2017-01-19T11:11:35.287Z,50
2017-01-19T11:12:35.767Z,65
2017-01-19T11:13:36.116Z,60
2017-01-19T11:14:35.828Z,100
2017-01-19T11:15:35.787Z,100
2017-01-19T11:16:36.285Z,100
2017-01-19T11:17:35.376Z,105
2017-01-19T11:18:35.861Z,65
2017-01-19T11:19:36.394Z,50
2017-01-19T11:20:35.393Z,45
2017-01-19T11:21:36.169Z,45
2017-01-19T11:22:35.920Z,50
2017-01-19T11:23:35.889Z,50
2017-01-19T11:24:36.386Z,65
2017-01-19T11:25:36.377Z,70
2017-01-19T11:26:36.884Z,70
2017-01-19T11:27:36.185Z,100
2017-01-19T11:28:36.370Z,110
2017-01-19T11:29:36.366Z,80
2017-01-19T11:30:36.375Z,110
2017-01-19T11:31:36.853Z,90
2017-01-19T11:32:36.009Z,90
2017-01-19T11:33:36.428Z,55
2017-01-19T11:34:35.466Z,95
2017-01-19T11:35:35.617Z,100
2017-01-19T11:36:35.643Z,60
2017-01-19T11:37:36.080Z,85
2017-01-19T11:38:35.250Z,95
2017-01-19T11:39:36.118Z,110
2017-01-19T11:40:36.907Z,110
2017-01-19T11:41:36.005Z,115
2017-01-19T11:42:35.685Z,110
2017-01-19T11:43:36.533Z,110
2017-01-19T11:44:36.101Z,125
2017-01-19T11:45:36.133Z,120
2017-01-19T11:46:36.445Z,120
2017-01-19T11:47:36.468Z,115
2017-01-19T11:48:36.145Z,115
2017-01-19T11:49:35.744Z,110
2017-01-19T11:50:35.385Z,105
2017-01-19T11:51:36.219Z,115
2017-01-19T11:52:36.594Z,105
2017-01-19T11:53:36.149Z,115
2017-01-19T11:54:36.606Z,115
2017-01-19T11:55:36.236Z,110
2017-01-19T11:56:36.261Z,105
2017-01-19T11:57:36.678Z,100
2017-01-19T11:58:36.569Z,105
2017-01-19T11:59:35.764Z,110
2017-01-19T12:00:36.247Z,105
2017-01-19T12:01:36.296Z,105
2017-01-19T12:02:36.280Z,105
2017-01-19T12:03:36.202Z,95
2017-01-19T12:04:36.646Z,95
2017-01-19T12:05:36.644Z,95
2017-01-19T12:06:36.288Z,105
2017-01-19T12:07:35.814Z,95
2017-01-19T12:08:35.470Z,85
2017-01-19T12:09:35.850Z,85
2017-01-19T12:10:35.932Z,95
2017-01-19T12:11:35.922Z,95
2017-01-19T12:12:36.288Z,90
2017-01-19T12:13:36.362Z,95
2017-01-19T12:14:36.401Z,80
2017-01-19T12:15:36.368Z,95
2017-01-19T12:16:36.672Z,95
2017-01-19T12:17:36.368Z,95
2017-01-19T12:18:36.802Z,95
2017-01-19T12:19:36.384Z,95
2017-01-19T12:20:36.397Z,95
2017-01-19T12:21:36.862Z,95
2017-01-19T12:22:36.806Z,95
2017-01-19T12:23:36.435Z,95
2017-01-19T12:24:36.070Z,95
2017-01-19T12:25:36.976Z,95
2017-01-19T12:26:36.915Z,95
2017-01-19T12:27:36.113Z,90
2017-01-19T12:28:36.060Z,90
2017-01-19T12:29:36.507Z,90
2017-01-19T12:30:37.372Z,90
2017-01-19T12:31:36.135Z,90
2017-01-19T12:32:36.549Z,90
2017-01-19T12:33:37.018Z,90
2017-01-19T12:34:36.547Z,90
2017-01-19T12:35:36.636Z,90
2017-01-19T12:36:36.181Z,85
2017-01-19T12:37:36.284Z,90
2017-01-19T12:38:36.605Z,90
2017-01-19T12:39:37.023Z,90
2017-01-19T12:40:36.248Z,90
2017-01-19T12:41:36.249Z,85
2017-01-19T12:42:36.262Z,90
2017-01-19T12:43:37.484Z,90
2017-01-19T12:44:37.132Z,85
2017-01-19T12:45:36.356Z,90
2017-01-19T12:46:36.730Z,85
2017-01-19T12:47:36.785Z,85
2017-01-19T12:48:37.141Z,90
2017-01-19T12:49:37.176Z,85
2017-01-19T12:50:36.405Z,85
2017-01-19T12:51:36.425Z,85
2017-01-19T12:52:36.783Z,80
2017-01-19T12:53:37.640Z,80
2017-01-19T12:54:36.419Z,75
2017-01-19T12:55:36.445Z,85
2017-01-19T12:56:36.454Z,80
2017-01-19T12:57:36.921Z,80
2017-01-19T12:58:37.250Z,80
2017-01-19T12:59:36.934Z,75
2017-01-19T13:00:36.514Z,80
2017-01-19T13:01:37.402Z,75
2017-01-19T13:02:37.146Z,75
2017-01-19T13:03:36.614Z,80
2017-01-19T13:04:36.603Z,75
2017-01-19T13:05:37.398Z,75
2017-01-19T13:06:36.954Z,75
2017-01-19T13:07:37.503Z,70
2017-01-19T13:08:37.120Z,75
2017-01-19T13:09:37.051Z,75
2017-01-19T13:10:36.256Z,70
2017-01-19T13:11:37.067Z,75
2017-01-19T13:12:37.821Z,70
2017-01-19T13:13:37.058Z,70
2017-01-19T13:14:37.030Z,75
2017-01-19T13:15:37.072Z,70
2017-01-19T13:16:37.094Z,70
2017-01-19T13:17:36.678Z,75
2017-01-19T13:18:37.521Z,70
2017-01-19T13:19:37.182Z,70
2017-01-19T13:20:37.121Z,70
2017-01-19T13:21:37.896Z,70
2017-01-19T13:22:37.500Z,70
2017-01-19T13:23:36.703Z,65
2017-01-19T13:24:37.166Z,65
2017-01-19T13:25:37.132Z,65
2017-01-19T13:26:36.339Z,65
2017-01-19T13:27:36.352Z,65
2017-01-19T13:28:36.767Z,65
2017-01-19T13:29:38.022Z,65
2017-01-19T13:30:37.189Z,65
2017-01-19T13:31:37.596Z,65
2017-01-19T13:32:37.631Z,65
2017-01-19T13:33:36.838Z,65
2017-01-19T13:34:37.635Z,65
2017-01-19T13:35:36.850Z,65
2017-01-19T13:36:36.867Z,65
2017-01-19T13:37:36.894Z,65
2017-01-19T13:38:37.337Z,60
2017-01-19T13:39:37.352Z,60
2017-01-19T13:40:37.315Z,60
2017-01-19T13:41:37.438Z,60
2017-01-19T13:42:36.996Z,60
2017-01-19T13:43:38.146Z,60
2017-01-19T13:44:38.195Z,60
2017-01-19T13:45:37.395Z,60
2017-01-19T13:46:37.022Z,60
2017-01-19T13:47:37.465Z,55
2017-01-19T13:48:37.490Z,55
2017-01-19T13:49:37.133Z,55
2017-01-19T13:50:37.586Z,55
2017-01-19T13:51:38.315Z,55
2017-01-19T13:52:37.953Z,55
2017-01-19T13:53:37.103Z,55
2017-01-19T13:54:37.894Z,50
2017-01-19T13:55:37.515Z,50
2017-01-19T13:56:36.700Z,50
2017-01-19T13:57:36.716Z,50
2017-01-19T13:58:37.953Z,50
2017-01-19T13:59:36.756Z,50
2017-01-19T14:00:37.597Z,50
2017-01-19T14:01:37.190Z,50
2017-01-19T14:02:37.219Z,50
2017-01-19T14:03:37.644Z,45
2017-01-19T14:04:37.215Z,50
2017-01-19T14:05:37.624Z,45
2017-01-19T14:06:37.702Z,45
2017-01-19T14:07:37.668Z,45
2017-01-19T14:08:38.098Z,45
2017-01-19T14:09:38.267Z,45
2017-01-19T14:10:36.890Z,45
2017-01-19T14:11:36.990Z,45
2017-01-19T14:12:37.713Z,45
2017-01-19T14:13:38.139Z,40
2017-01-19T14:14:37.766Z,40
2017-01-19T14:15:38.155Z,40
2017-01-19T14:16:37.348Z,40
2017-01-19T14:17:37.428Z,40
2017-01-19T14:18:38.596Z,40
2017-01-19T14:19:38.601Z,35
2017-01-19T14:20:37.803Z,35
2017-01-19T14:21:37.850Z,35
2017-01-19T14:22:37.847Z,35
2017-01-19T14:23:37.453Z,35
2017-01-19T14:24:37.877Z,35
2017-01-19T14:25:37.893Z,35
2017-01-19T14:26:38.387Z,35
2017-01-19T14:27:37.511Z,35
2017-01-19T14:28:38.307Z,35
2017-01-19T14:29:38.323Z,35
2017-01-19T14:30:37.146Z,35
2017-01-19T14:31:37.148Z,35
2017-01-19T14:32:37.558Z,35
2017-01-19T14:33:37.987Z,30